createdAt,value
2018-03-27T00:01:23.375Z,21.73
2018-03-27T00:03:50.769Z,21.73
2018-03-27T00:06:18.193Z,22.37
2018-03-27T00:08:46.238Z,21.97
2018-03-27T00:11:13.755Z,22.97
2018-03-27T00:13:41.006Z,21.87
2018-03-27T00:16:08.373Z,22.83
2018-03-27T00:18:35.777Z,22.50
2018-03-27T00:21:03.233Z,22.60
2018-03-27T00:23:30.638Z,22.73
2018-03-27T00:25:57.940Z,22.63
2018-03-27T00:28:43.090Z,22.60
2018-03-27T00:31:34.398Z,22.83
2018-03-27T00:34:25.627Z,22.20
2018-03-27T00:37:16.704Z,23.30
2018-03-27T00:40:09.718Z,23.70
2018-03-27T00:42:56.768Z,21.80
2018-03-27T00:45:24.039Z,22.43
2018-03-27T00:47:51.069Z,21.93
2018-03-27T00:50:18.910Z,22.10
2018-03-27T00:52:46.282Z,26.57
2018-03-27T00:55:13.670Z,23.87
2018-03-27T00:57:40.930Z,23.43
2018-03-27T01:00:08.614Z,20.67
2018-03-27T01:02:36.050Z,21.23
2018-03-27T01:05:09.228Z,23.20
2018-03-27T01:07:36.583Z,24.60
2018-03-27T01:10:03.768Z,23.13
2018-03-27T01:12:31.021Z,21.57
2018-03-27T01:14:58.429Z,22.33
2018-03-27T01:17:25.671Z,21.60
2018-03-27T01:19:56.225Z,19.93
2018-03-27T01:22:24.008Z,22.57
2018-03-27T01:24:51.635Z,21.80
2018-03-27T01:27:19.022Z,22.33
2018-03-27T01:29:47.530Z,17.70
2018-03-27T01:32:14.949Z,19.33
2018-03-27T01:34:42.181Z,18.20
2018-03-27T01:37:09.344Z,17.47
2018-03-27T01:39:40.050Z,17.93
2018-03-27T01:42:07.980Z,19.50
2018-03-27T01:44:35.113Z,18.97
2018-03-27T01:47:02.434Z,20.43
2018-03-27T01:49:30.000Z,17.50
2018-03-27T01:51:57.373Z,18.17
2018-03-27T01:54:24.742Z,17.73
2018-03-27T01:56:51.964Z,17.67
2018-03-27T01:59:19.258Z,16.57
2018-03-27T02:01:47.540Z,19.83
2018-03-27T02:04:14.862Z,16.67
2018-03-27T02:06:42.677Z,18.47
2018-03-27T02:09:10.772Z,16.53
2018-03-27T02:11:44.108Z,16.23
2018-03-27T02:14:17.392Z,15.60
2018-03-27T02:16:50.770Z,14.77
2018-03-27T02:19:24.208Z,15.80
2018-03-27T02:21:51.404Z,15.07
2018-03-27T02:24:19.676Z,15.27
2018-03-27T02:26:47.022Z,14.93
2018-03-27T02:29:18.641Z,14.43
2018-03-27T02:31:45.863Z,16.27
2018-03-27T02:34:13.301Z,15.90
2018-03-27T02:36:40.725Z,15.53
2018-03-27T02:39:09.576Z,16.07
2018-03-27T02:41:36.765Z,15.87
2018-03-27T02:44:04.035Z,16.20
2018-03-27T02:46:31.203Z,15.43
2018-03-27T02:49:01.805Z,15.30
2018-03-27T02:51:29.222Z,15.93
2018-03-27T02:53:56.694Z,15.50
2018-03-27T02:56:23.988Z,15.17
2018-03-27T02:58:51.797Z,14.20
2018-03-27T03:01:19.076Z,14.00
2018-03-27T03:03:46.455Z,15.57
2018-03-27T03:06:13.834Z,14.97
2018-03-27T03:08:45.386Z,16.07
2018-03-27T03:11:13.480Z,15.07
2018-03-27T03:13:40.766Z,15.53
2018-03-27T03:16:09.057Z,14.97
2018-03-27T03:18:37.116Z,14.30
2018-03-27T03:21:04.441Z,16.10
2018-03-27T03:23:32.039Z,16.10
2018-03-27T03:25:59.626Z,17.37
2018-03-27T03:28:31.282Z,16.23
2018-03-27T03:30:58.857Z,16.10
2018-03-27T03:33:26.185Z,18.00
2018-03-27T03:35:53.644Z,17.60
2018-03-27T03:38:27.109Z,18.23
2018-03-27T03:40:55.194Z,18.07
2018-03-27T03:43:22.456Z,19.47
2018-03-27T03:45:50.692Z,19.27
2018-03-27T03:48:18.134Z,18.40
2018-03-27T03:50:45.392Z,19.13
2018-03-27T03:53:12.934Z,20.70
2018-03-27T03:55:40.782Z,18.67
2018-03-27T03:58:08.103Z,20.13
2018-03-27T04:00:35.681Z,22.03
2018-03-27T04:03:03.120Z,22.20
2018-03-27T04:05:30.567Z,22.90
2018-03-27T04:07:57.922Z,24.20
2018-03-27T04:10:25.084Z,29.60
2018-03-27T04:12:52.390Z,25.67
2018-03-27T04:15:19.722Z,25.30
2018-03-27T04:17:47.009Z,24.97
2018-03-27T04:20:14.247Z,24.57
2018-03-27T04:22:41.717Z,25.63
2018-03-27T04:25:09.058Z,24.40
2018-03-27T04:27:36.342Z,25.23
2018-03-27T04:30:06.981Z,23.97
2018-03-27T04:32:35.342Z,24.23
2018-03-27T04:35:03.341Z,24.67
2018-03-27T04:37:30.725Z,24.67
2018-03-27T04:40:02.545Z,23.80
2018-03-27T04:42:30.669Z,23.70
2018-03-27T04:44:58.126Z,23.50
2018-03-27T04:47:25.276Z,28.90
2018-03-27T04:49:55.910Z,25.00
2018-03-27T04:52:23.236Z,25.13
2018-03-27T04:54:50.618Z,22.90
2018-03-27T04:57:17.814Z,24.63
2018-03-27T04:59:48.978Z,24.27
2018-03-27T05:02:16.230Z,24.67
2018-03-27T05:04:43.607Z,27.20
2018-03-27T05:07:10.924Z,25.63
2018-03-27T05:09:40.046Z,26.47
2018-03-27T05:12:07.469Z,26.33
2018-03-27T05:14:34.730Z,25.37
2018-03-27T05:17:02.219Z,26.07
2018-03-27T05:19:29.375Z,27.10
2018-03-27T05:21:56.738Z,26.47
2018-03-27T05:24:24.050Z,28.23
2018-03-27T05:26:51.449Z,29.20
2018-03-27T05:29:24.407Z,29.43
2018-03-27T05:31:51.666Z,31.33
2018-03-27T05:34:19.016Z,30.93
2018-03-27T05:36:46.294Z,30.97
2018-03-27T05:39:20.090Z,30.70
2018-03-27T05:41:47.492Z,31.70
2018-03-27T05:44:14.820Z,30.23
2018-03-27T05:46:42.696Z,28.00
2018-03-27T05:49:11.254Z,25.67
2018-03-27T05:51:38.623Z,25.80
2018-03-27T05:54:05.990Z,26.53
2018-03-27T05:56:33.410Z,26.70
2018-03-27T05:59:07.133Z,25.47
2018-03-27T06:01:34.452Z,27.37
2018-03-27T06:04:02.530Z,27.87
2018-03-27T06:06:30.641Z,13.63
2018-03-27T06:09:03.614Z,14.53
2018-03-27T06:11:31.098Z,10.70
2018-03-27T06:13:58.785Z,10.13
2018-03-27T06:16:26.296Z,8.03
2018-03-27T06:18:56.707Z,8.37
2018-03-27T06:21:24.729Z,8.30
2018-03-27T06:23:52.094Z,8.97
2018-03-27T06:26:19.338Z,9.00
2018-03-27T06:28:50.948Z,9.87
2018-03-27T06:31:18.414Z,10.50
2018-03-27T06:33:45.827Z,11.63
2018-03-27T06:36:13.054Z,10.20
2018-03-27T06:38:41.652Z,9.17
2018-03-27T06:41:09.085Z,10.57
2018-03-27T06:43:36.509Z,8.23
2018-03-27T06:46:03.698Z,6.87
2018-03-27T06:48:31.186Z,8.50
2018-03-27T06:50:58.477Z,6.60
2018-03-27T06:53:25.809Z,9.73
2018-03-27T06:55:53.200Z,7.33
2018-03-27T06:58:25.373Z,8.70
2018-03-27T07:00:52.693Z,8.63
2018-03-27T07:03:20.879Z,6.90
2018-03-27T07:05:48.220Z,7.77
2018-03-27T07:08:21.353Z,8.03
2018-03-27T07:10:48.759Z,6.20
2018-03-27T07:13:15.969Z,8.73
2018-03-27T07:15:43.459Z,9.10
2018-03-27T07:18:11.865Z,9.70
2018-03-27T07:20:39.122Z,10.43
2018-03-27T07:23:06.496Z,6.50
2018-03-27T07:25:33.837Z,8.97
2018-03-27T07:28:08.312Z,6.13
2018-03-27T07:30:35.602Z,6.50
2018-03-27T07:33:02.850Z,8.10
2018-03-27T07:35:31.046Z,7.90
2018-03-27T07:37:59.437Z,6.67
2018-03-27T07:40:26.784Z,7.10
2018-03-27T07:42:54.157Z,7.43
2018-03-27T07:45:21.543Z,8.30
2018-03-27T07:47:52.948Z,6.27
2018-03-27T07:50:20.313Z,6.20
2018-03-27T07:52:47.898Z,6.60
2018-03-27T07:55:15.242Z,6.23
2018-03-27T07:57:42.629Z,5.30
2018-03-27T08:00:09.974Z,5.83
2018-03-27T08:02:37.450Z,7.23
2018-03-27T08:05:04.768Z,5.53
2018-03-27T08:07:32.242Z,6.40
2018-03-27T08:09:59.601Z,5.57
2018-03-27T08:12:27.766Z,7.63
2018-03-27T08:14:55.290Z,8.43
2018-03-27T08:17:23.948Z,6.10
2018-03-27T08:19:52.617Z,5.40
2018-03-27T08:22:19.921Z,5.10
2018-03-27T08:24:47.167Z,5.37
2018-03-27T08:27:14.618Z,5.87
2018-03-27T08:29:41.949Z,5.47
2018-03-27T08:32:09.274Z,6.83
2018-03-27T08:34:36.727Z,5.63
2018-03-27T08:37:04.005Z,5.20
2018-03-27T08:39:32.658Z,5.67
2018-03-27T08:42:00.307Z,5.93
2018-03-27T08:44:27.697Z,5.57
2018-03-27T08:46:55.247Z,5.37
2018-03-27T08:49:22.781Z,5.23
2018-03-27T08:51:50.234Z,5.73
2018-03-27T08:54:17.683Z,5.50
2018-03-27T08:56:45.074Z,4.73
2018-03-27T08:59:13.569Z,3.83
2018-03-27T09:01:40.970Z,4.93
2018-03-27T09:04:08.218Z,6.47
2018-03-27T09:06:35.451Z,5.23
2018-03-27T09:09:03.786Z,5.07
2018-03-27T09:11:31.291Z,6.20
2018-03-27T09:13:58.718Z,4.50
2018-03-27T09:16:25.995Z,4.57
2018-03-27T09:18:54.430Z,4.50
2018-03-27T09:21:21.877Z,4.00
2018-03-27T09:23:49.759Z,4.80
2018-03-27T09:26:17.078Z,5.37
2018-03-27T09:28:47.830Z,4.90
2018-03-27T09:31:15.994Z,5.30
2018-03-27T09:33:43.121Z,4.23
2018-03-27T09:36:10.491Z,4.00
2018-03-27T09:38:38.037Z,3.37
2018-03-27T09:41:05.513Z,4.07
2018-03-27T09:43:32.913Z,3.80
2018-03-27T09:46:01.454Z,4.83
2018-03-27T09:48:29.046Z,3.47
2018-03-27T09:50:56.346Z,3.83
2018-03-27T09:53:24.002Z,4.57
2018-03-27T09:55:51.498Z,4.20
2018-03-27T09:58:18.937Z,5.60
2018-03-27T10:00:50.058Z,4.33
2018-03-27T10:03:17.421Z,4.03
2018-03-27T10:05:44.854Z,4.90
2018-03-27T10:08:15.772Z,4.50
2018-03-27T10:10:43.141Z,4.47
2018-03-27T10:13:10.362Z,4.43
2018-03-27T10:15:37.731Z,4.77
2018-03-27T10:18:15.214Z,4.50
2018-03-27T10:20:43.477Z,4.07
2018-03-27T10:23:10.613Z,7.63
2018-03-27T10:25:37.971Z,4.90
2018-03-27T10:28:09.613Z,8.93
2018-03-27T10:30:37.056Z,5.73
2018-03-27T10:33:04.429Z,4.37
2018-03-27T10:35:31.845Z,5.43
2018-03-27T10:37:59.299Z,4.73
2018-03-27T10:40:26.554Z,4.70
2018-03-27T10:42:54.053Z,4.50
2018-03-27T10:45:21.401Z,4.13
2018-03-27T10:47:48.658Z,4.53
2018-03-27T10:50:15.951Z,4.23
2018-03-27T10:52:43.846Z,4.80
2018-03-27T10:55:11.157Z,5.17
2018-03-27T10:57:44.776Z,5.13
2018-03-27T11:00:12.021Z,3.77
2018-03-27T11:02:39.494Z,4.60
2018-03-27T11:05:06.909Z,4.90
2018-03-27T11:07:34.319Z,4.93
2018-03-27T11:10:01.644Z,5.00
2018-03-27T11:12:28.957Z,4.50
2018-03-27T11:14:56.164Z,4.20
2018-03-27T11:17:26.971Z,4.53
2018-03-27T11:19:54.147Z,5.40
2018-03-27T11:22:21.366Z,4.07
2018-03-27T11:24:48.849Z,4.47
2018-03-27T11:27:17.651Z,4.43
2018-03-27T11:29:45.554Z,5.43
2018-03-27T11:32:13.170Z,6.23
2018-03-27T11:34:40.594Z,5.93
2018-03-27T11:37:07.963Z,6.53
2018-03-27T11:39:35.318Z,6.43
2018-03-27T11:42:02.709Z,5.73
2018-03-27T11:44:30.171Z,6.73
2018-03-27T11:46:57.934Z,6.23
2018-03-27T11:49:29.800Z,5.73
2018-03-27T11:51:57.111Z,6.13
2018-03-27T11:54:24.522Z,6.33
2018-03-27T11:56:51.612Z,6.80
2018-03-27T11:59:19.114Z,6.07
2018-03-27T12:01:46.398Z,6.40
2018-03-27T12:04:14.091Z,6.80
2018-03-27T12:06:41.544Z,6.47
2018-03-27T12:09:08.905Z,7.50
2018-03-27T12:11:36.320Z,7.13
2018-03-27T12:14:04.139Z,7.50
2018-03-27T12:16:31.538Z,8.37
2018-03-27T12:19:02.613Z,8.70
2018-03-27T12:21:30.268Z,9.07
2018-03-27T12:23:58.708Z,8.27
2018-03-27T12:26:26.515Z,10.20
2018-03-27T12:28:58.858Z,7.40
2018-03-27T12:31:26.179Z,8.40
2018-03-27T12:33:54.274Z,7.90
2018-03-27T12:36:22.050Z,7.07
2018-03-27T12:38:52.915Z,7.60
2018-03-27T12:41:20.174Z,7.40
2018-03-27T12:43:47.331Z,7.97
2018-03-27T12:46:14.431Z,9.20
2018-03-27T12:48:43.766Z,10.83
2018-03-27T12:51:10.994Z,13.80
2018-03-27T12:53:38.305Z,12.30
2018-03-27T12:56:05.485Z,14.30
2018-03-27T12:58:32.921Z,17.37
2018-03-27T13:01:00.262Z,13.80
2018-03-27T13:03:27.521Z,12.23
2018-03-27T13:05:56.695Z,11.33
2018-03-27T13:08:27.695Z,18.03
2018-03-27T13:10:54.972Z,20.90
2018-03-27T13:13:22.574Z,24.70
2018-03-27T13:15:49.943Z,20.00
2018-03-27T13:18:22.008Z,51.93
2018-03-27T13:20:49.886Z,17.67
2018-03-27T13:23:17.084Z,13.50
2018-03-27T13:25:44.631Z,16.67
2018-03-27T13:28:11.782Z,11.80
2018-03-27T13:30:38.958Z,8.03
2018-03-27T13:33:06.413Z,5.83
2018-03-27T13:35:33.602Z,8.50
2018-03-27T13:38:04.647Z,20.30
2018-03-27T13:40:31.877Z,13.87
2018-03-27T13:42:59.150Z,14.77
2018-03-27T13:45:26.478Z,29.37
2018-03-27T13:47:53.770Z,21.47
2018-03-27T13:50:24.022Z,21.97
2018-03-27T13:52:51.347Z,23.00
2018-03-27T13:55:18.681Z,23.03
2018-03-27T13:57:51.769Z,28.33
2018-03-27T14:00:18.954Z,31.80
2018-03-27T14:02:46.078Z,28.27
2018-03-27T14:05:13.373Z,16.57
2018-03-27T14:07:44.597Z,23.43
2018-03-27T14:10:11.779Z,15.67
2018-03-27T14:12:39.153Z,13.57
2018-03-27T14:15:06.370Z,12.93
2018-03-27T14:17:34.614Z,8.03
2018-03-27T14:20:01.837Z,11.30
2018-03-27T14:22:29.173Z,13.57
2018-03-27T14:24:56.453Z,12.93
2018-03-27T14:27:23.841Z,10.00
2018-03-27T14:29:51.125Z,10.97
2018-03-27T14:32:18.306Z,10.00
2018-03-27T14:34:45.739Z,8.53
2018-03-27T14:37:13.829Z,9.17
2018-03-27T14:39:41.430Z,10.50
2018-03-27T14:42:08.615Z,8.30
2018-03-27T14:44:35.732Z,7.33
2018-03-27T14:47:03.750Z,9.00
2018-03-27T14:49:30.864Z,19.63
2018-03-27T14:51:58.093Z,13.13
2018-03-27T14:54:25.452Z,12.03
2018-03-27T14:56:56.362Z,7.07
2018-03-27T14:59:23.741Z,11.70
2018-03-27T15:01:50.882Z,6.70
2018-03-27T15:04:18.916Z,5.47
2018-03-27T15:06:51.899Z,10.97
2018-03-27T15:09:19.214Z,5.37
2018-03-27T15:11:46.610Z,7.07
2018-03-27T15:14:13.902Z,7.10
2018-03-27T15:16:44.454Z,22.37
2018-03-27T15:19:11.850Z,6.43
2018-03-27T15:21:39.121Z,11.20
2018-03-27T15:24:06.580Z,10.97
2018-03-27T15:26:34.439Z,7.00
2018-03-27T15:29:02.604Z,8.43
2018-03-27T15:31:29.946Z,9.97
2018-03-27T15:33:57.216Z,11.57
2018-03-27T15:36:25.342Z,7.90
2018-03-27T15:38:52.493Z,17.80
2018-03-27T15:41:19.874Z,13.57
2018-03-27T15:43:47.834Z,20.70
2018-03-27T15:46:15.828Z,28.30
2018-03-27T15:48:55.933Z,14.03
2018-03-27T15:51:23.210Z,11.07
2018-03-27T15:53:50.473Z,6.43
2018-03-27T15:56:17.662Z,5.77
2018-03-27T15:58:48.566Z,7.63
2018-03-27T16:01:16.110Z,17.60
2018-03-27T16:03:43.573Z,17.67
2018-03-27T16:06:10.806Z,14.47
2018-03-27T16:08:48.688Z,26.23
2018-03-27T16:11:15.934Z,10.33
2018-03-27T16:13:43.206Z,14.43
2018-03-27T16:16:11.182Z,14.03
2018-03-27T16:18:43.348Z,7.03
2018-03-27T16:21:10.623Z,6.70
2018-03-27T16:23:37.867Z,8.90
2018-03-27T16:26:06.132Z,6.17
2018-03-27T16:28:33.490Z,4.80
2018-03-27T16:31:00.729Z,5.80
2018-03-27T16:33:28.821Z,18.00
2018-03-27T16:35:56.234Z,9.93
2018-03-27T16:38:27.578Z,9.27
2018-03-27T16:40:55.358Z,6.00
2018-03-27T16:43:22.707Z,5.77
2018-03-27T16:45:50.013Z,7.30
2018-03-27T16:48:21.705Z,5.00
2018-03-27T16:50:48.882Z,4.47
2018-03-27T16:53:17.205Z,3.97
2018-03-27T16:55:44.465Z,4.33
2018-03-27T16:58:13.578Z,4.97
2018-03-27T17:00:42.485Z,5.77
2018-03-27T17:03:09.702Z,6.93
2018-03-27T17:05:36.846Z,7.27
2018-03-27T17:08:08.610Z,5.07
2018-03-27T17:10:36.019Z,7.10
2018-03-27T17:13:03.253Z,5.17
2018-03-27T17:15:31.499Z,5.67
2018-03-27T17:18:03.225Z,4.73
2018-03-27T17:20:30.505Z,5.03
2018-03-27T17:22:58.047Z,7.30
2018-03-27T17:25:25.838Z,9.17
2018-03-27T17:27:56.812Z,7.73
2018-03-27T17:30:24.471Z,6.57
2018-03-27T17:32:51.744Z,5.53
2018-03-27T17:35:18.947Z,6.80
2018-03-27T17:37:48.329Z,8.57
2018-03-27T17:40:15.479Z,9.40
2018-03-27T17:42:42.831Z,11.67
2018-03-27T17:45:10.868Z,23.03
2018-03-27T17:47:43.055Z,33.07
2018-03-27T17:50:10.586Z,8.70
2018-03-27T17:52:37.915Z,14.57
2018-03-27T17:55:06.778Z,7.17
2018-03-27T17:57:34.145Z,5.47
2018-03-27T18:00:01.413Z,5.80
2018-03-27T18:02:28.646Z,6.27
2018-03-27T18:04:56.096Z,6.30
2018-03-27T18:07:23.248Z,5.40
2018-03-27T18:09:50.454Z,6.07
2018-03-27T18:12:17.730Z,6.90
2018-03-27T18:14:47.370Z,8.43
2018-03-27T18:17:18.919Z,7.93
2018-03-27T18:19:46.186Z,7.63
2018-03-27T18:22:13.503Z,14.70
2018-03-27T18:24:40.967Z,14.53
2018-03-27T18:27:08.431Z,13.77
2018-03-27T18:29:35.802Z,12.73
2018-03-27T18:32:02.839Z,12.73
2018-03-27T18:34:29.950Z,13.73
2018-03-27T18:36:58.206Z,6.87
2018-03-27T18:39:27.354Z,7.60
2018-03-27T18:41:55.521Z,8.27
2018-03-27T18:44:22.531Z,12.00
2018-03-27T18:46:49.806Z,10.27
2018-03-27T18:49:17.124Z,8.33
2018-03-27T18:51:44.399Z,7.20
2018-03-27T18:54:11.621Z,8.20
2018-03-27T18:56:42.745Z,8.27
2018-03-27T18:59:10.833Z,13.03
2018-03-27T19:01:38.053Z,7.47
2018-03-27T19:04:05.268Z,8.00
2018-03-27T19:06:32.687Z,8.17
2018-03-27T19:09:00.067Z,10.00
2018-03-27T19:11:28.368Z,9.70
2018-03-27T19:13:56.110Z,10.40
2018-03-27T19:16:23.441Z,11.60
2018-03-27T19:18:50.690Z,9.30
2018-03-27T19:21:17.862Z,13.20
2018-03-27T19:23:45.229Z,12.80
2018-03-27T19:26:12.598Z,13.07
2018-03-27T19:28:41.174Z,13.00
2018-03-27T19:31:09.274Z,12.03
2018-03-27T19:33:36.743Z,12.63
2018-03-27T19:36:04.144Z,11.80
2018-03-27T19:38:31.373Z,16.23
2018-03-27T19:40:59.295Z,11.57
2018-03-27T19:43:26.592Z,16.90
2018-03-27T19:45:54.214Z,19.90
2018-03-27T19:48:21.426Z,21.07
2018-03-27T19:50:48.542Z,16.20
2018-03-27T19:53:15.773Z,13.90
2018-03-27T19:55:43.068Z,12.87
2018-03-27T19:58:11.377Z,13.00
2018-03-27T20:00:38.569Z,14.27
2018-03-27T20:03:05.742Z,19.23
2018-03-27T20:05:33.082Z,21.07
2018-03-27T20:08:04.340Z,21.97
2018-03-27T20:10:31.658Z,20.47
2018-03-27T20:12:58.982Z,20.33
2018-03-27T20:15:26.241Z,18.53
2018-03-27T20:17:54.387Z,12.93
2018-03-27T20:20:22.283Z,12.07
2018-03-27T20:22:49.517Z,14.07
2018-03-27T20:25:17.310Z,18.63
2018-03-27T20:27:44.566Z,18.63
2018-03-27T20:30:11.602Z,17.30
2018-03-27T20:32:38.831Z,16.27
2018-03-27T20:35:07.501Z,17.10
2018-03-27T20:37:35.977Z,15.90
2018-03-27T20:40:04.012Z,16.33
2018-03-27T20:42:31.222Z,12.50
2018-03-27T20:44:58.507Z,16.53
2018-03-27T20:47:25.822Z,17.80
2018-03-27T20:49:53.183Z,18.03
2018-03-27T20:52:20.309Z,20.10
2018-03-27T20:54:47.918Z,17.03
2018-03-27T20:57:29.172Z,14.70
2018-03-27T20:59:56.510Z,15.17
2018-03-27T21:02:23.729Z,14.23
2018-03-27T21:04:50.922Z,14.10
2018-03-27T21:07:21.614Z,14.80
2018-03-27T21:09:48.822Z,17.33
2018-03-27T21:12:16.034Z,16.20
2018-03-27T21:14:43.283Z,18.03
2018-03-27T21:17:14.986Z,18.20
2018-03-27T21:19:42.113Z,18.70
2018-03-27T21:22:09.306Z,21.10
2018-03-27T21:24:38.421Z,16.53
2018-03-27T21:27:08.790Z,14.03
2018-03-27T21:29:35.902Z,11.90
2018-03-27T21:32:03.585Z,12.50
2018-03-27T21:34:30.801Z,12.53
2018-03-27T21:37:01.842Z,13.37
2018-03-27T21:39:30.030Z,14.20
2018-03-27T21:41:57.094Z,14.53
2018-03-27T21:44:24.318Z,15.07
2018-03-27T21:46:54.829Z,16.13
2018-03-27T21:49:21.973Z,15.50
2018-03-27T21:51:49.292Z,14.83
2018-03-27T21:54:16.610Z,15.50
2018-03-27T21:56:47.053Z,15.53
2018-03-27T21:59:14.091Z,16.00
2018-03-27T22:01:41.042Z,16.37
2018-03-27T22:04:08.456Z,16.10
2018-03-27T22:06:35.794Z,16.27
2018-03-27T22:09:02.958Z,15.73
2018-03-27T22:11:30.155Z,15.60
2018-03-27T22:13:57.438Z,17.40
2018-03-27T22:16:29.861Z,16.30
2018-03-27T22:18:56.952Z,17.13
2018-03-27T22:21:24.105Z,16.33
2018-03-27T22:23:51.419Z,16.07
2018-03-27T22:26:24.966Z,16.93
2018-03-27T22:28:52.165Z,16.07
2018-03-27T22:31:19.346Z,16.33
2018-03-27T22:33:46.453Z,16.53
2018-03-27T22:36:19.534Z,15.93
2018-03-27T22:38:46.813Z,15.67
2018-03-27T22:41:14.058Z,16.87
2018-03-27T22:43:41.370Z,17.33
2018-03-27T22:46:11.545Z,17.37
2018-03-27T22:48:38.736Z,17.67
2018-03-27T22:51:06.018Z,18.13
2018-03-27T22:53:33.842Z,17.83
2018-03-27T22:56:01.433Z,16.90
2018-03-27T22:58:29.473Z,20.27
2018-03-27T23:00:56.712Z,18.47
2018-03-27T23:03:23.804Z,19.10
2018-03-27T23:06:01.372Z,19.73
2018-03-27T23:08:29.278Z,19.70
2018-03-27T23:11:01.494Z,18.47
2018-03-27T23:13:28.698Z,18.23
2018-03-27T23:16:00.137Z,19.50
2018-03-27T23:18:27.384Z,17.23
2018-03-27T23:20:54.589Z,19.40
2018-03-27T23:23:21.798Z,18.47
2018-03-27T23:25:53.497Z,20.13
2018-03-27T23:28:21.377Z,21.40
2018-03-27T23:30:48.606Z,20.13
2018-03-27T23:33:15.950Z,19.33
2018-03-27T23:35:46.296Z,19.83
2018-03-27T23:38:16.197Z,19.27
2018-03-27T23:40:43.502Z,15.27
2018-03-27T23:43:10.711Z,14.73
2018-03-27T23:45:41.611Z,14.70
2018-03-27T23:48:09.045Z,14.17
2018-03-27T23:50:36.193Z,15.83
2018-03-27T23:53:03.330Z,15.53
2018-03-27T23:55:36.226Z,15.53
2018-03-27T23:58:03.345Z,16.13
